Diaz, Arkansas
Current Conditions -  °F | °C
As of 9:56 PM on Sunday 25 Jan 2015 (Local Time) from KM19 Reporting Station
Overcast Overcast  
Wind Chill: 36°   Ceiling: 2400
Heat Index: 44°   Visibility: 10mi
Dew Point: 36°   Wind: 17mph
Humidity: 74%   Direction: 320°NW
Pressure: 29.97"   Gusts: NA
Location:  35.64°N, 91.27°W
Report Text: KM19 260356Z AUTO 32015KT 10SM OVC024 07/02 A2997 RMK AO2 T00660022 PK WND 32026/0316 SLP147
Loading
Personal Weather Stations






























Interactive Weather Map New forecast layout! Learn more

10-Day Weather Forecast

Advertisements
Track Severe Weather on mobile